sensor_id;sensor_type;location;lat;lon;timestamp;temperature;humidity
13835;DHT22;6988;52.614;13.500;2022-12-18T00:03:22;-4.40;99.90
13835;DHT22;6988;52.614;13.500;2022-12-18T00:08:14;-4.50;99.90
13835;DHT22;6988;52.614;13.500;2022-12-18T00:13:07;-4.50;99.90
13835;DHT22;6988;52.614;13.500;2022-12-18T00:17:59;-4.40;99.90
13835;DHT22;6988;52.614;13.500;2022-12-18T00:22:52;-4.40;99.90
13835;DHT22;6988;52.614;13.500;2022-12-18T00:27:44;-4.40;99.90
13835;DHT22;6988;52.614;13.500;2022-12-18T00:32:37;-4.40;99.90
13835;DHT22;6988;52.614;13.500;2022-12-18T00:37:29;-4.50;99.90
13835;DHT22;6988;52.614;13.500;2022-12-18T00:42:23;-4.50;99.90
13835;DHT22;6988;52.614;13.500;2022-12-18T00:47:32;-4.60;99.90
13835;DHT22;6988;52.614;13.500;2022-12-18T00:52:24;-4.60;99.90
13835;DHT22;6988;52.614;13.500;2022-12-18T00:57:17;-4.60;99.90
13835;DHT22;6988;52.614;13.500;2022-12-18T01:02:10;-4.50;99.90
13835;DHT22;6988;52.614;13.500;2022-12-18T01:07:05;-4.50;99.90
13835;DHT22;6988;52.614;13.500;2022-12-18T01:11:58;-4.50;99.90
13835;DHT22;6988;52.614;13.500;2022-12-18T01:16:50;-4.50;99.90
13835;DHT22;6988;52.614;13.500;2022-12-18T01:21:44;-4.70;99.90
13835;DHT22;6988;52.614;13.500;2022-12-18T01:26:37;-4.70;99.90
13835;DHT22;6988;52.614;13.500;2022-12-18T01:31:31;-4.70;99.90
13835;DHT22;6988;52.614;13.500;2022-12-18T01:36:28;-4.70;99.90
13835;DHT22;6988;52.614;13.500;2022-12-18T01:41:26;-4.90;99.90
13835;DHT22;6988;52.614;13.500;2022-12-18T01:46:40;-4.90;99.90
13835;DHT22;6988;52.614;13.500;2022-12-18T01:51:32;-5.00;99.90
13835;DHT22;6988;52.614;13.500;2022-12-18T01:56:25;-5.30;99.90
13835;DHT22;6988;52.614;13.500;2022-12-18T02:01:18;-5.30;99.90
13835;DHT22;6988;52.614;13.500;2022-12-18T02:06:16;-5.20;99.90
13835;DHT22;6988;52.614;13.500;2022-12-18T02:11:20;-5.10;99.90
13835;DHT22;6988;52.614;13.500;2022-12-18T02:16:27;-5.10;99.90
13835;DHT22;6988;52.614;13.500;2022-12-18T02:21:32;-5.10;99.90
13835;DHT22;6988;52.614;13.500;2022-12-18T02:26:35;-5.20;99.90
13835;DHT22;6988;52.614;13.500;2022-12-18T02:31:33;-5.20;99.90
13835;DHT22;6988;52.614;13.500;2022-12-18T02:36:30;-5.20;99.90
13835;DHT22;6988;52.614;13.500;2022-12-18T02:41:25;-5.20;99.90
13835;DHT22;6988;52.614;13.500;2022-12-18T02:46:38;-5.20;99.90
13835;DHT22;6988;52.614;13.500;2022-12-18T02:51:44;-5.20;99.90
13835;DHT22;6988;52.614;13.500;2022-12-18T02:56:46;-5.20;99.90
13835;DHT22;6988;52.614;13.500;2022-12-18T03:01:51;-5.20;99.90
13835;DHT22;6988;52.614;13.500;2022-12-18T03:06:49;-5.20;99.90
13835;DHT22;6988;52.614;13.500;2022-12-18T03:11:51;-5.20;99.90
13835;DHT22;6988;52.614;13.500;2022-12-18T03:17:11;-5.20;99.90
13835;DHT22;6988;52.614;13.500;2022-12-18T03:22:07;-5.20;99.90
13835;DHT22;6988;52.614;13.500;2022-12-18T03:27:12;-5.10;99.90
13835;DHT22;6988;52.614;13.500;2022-12-18T03:32:14;-5.00;99.90
13835;DHT22;6988;52.614;13.500;2022-12-18T03:37:11;-5.00;99.90
13835;DHT22;6988;52.614;13.500;2022-12-18T03:42:06;-5.10;99.90
13835;DHT22;6988;52.614;13.500;2022-12-18T03:47:15;-5.10;99.90
13835;DHT22;6988;52.614;13.500;2022-12-18T03:52:17;-5.10;99.90
13835;DHT22;6988;52.614;13.500;2022-12-18T03:57:19;-5.20;99.90
13835;DHT22;6988;52.614;13.500;2022-12-18T04:02:17;-5.40;99.90
13835;DHT22;6988;52.614;13.500;2022-12-18T04:07:11;-5.60;99.90
13835;DHT22;6988;52.614;13.500;2022-12-18T04:12:08;-5.50;99.90
13835;DHT22;6988;52.614;13.500;2022-12-18T04:17:00;-5.50;99.90
13835;DHT22;6988;52.614;13.500;2022-12-18T04:21:57;-5.60;99.90
13835;DHT22;6988;52.614;13.500;2022-12-18T04:26:50;-5.60;99.90
13835;DHT22;6988;52.614;13.500;2022-12-18T04:31:47;-5.60;99.90
13835;DHT22;6988;52.614;13.500;2022-12-18T04:36:40;-5.50;99.90
13835;DHT22;6988;52.614;13.500;2022-12-18T04:41:33;-5.60;99.90
13835;DHT22;6988;52.614;13.500;2022-12-18T04:46:26;-5.60;99.90
13835;DHT22;6988;52.614;13.500;2022-12-18T04:51:18;-5.60;99.90
13835;DHT22;6988;52.614;13.500;2022-12-18T04:56:11;-5.60;99.90
13835;DHT22;6988;52.614;13.500;2022-12-18T05:01:06;-5.40;99.90
13835;DHT22;6988;52.614;13.500;2022-12-18T05:05:58;-5.70;99.90
13835;DHT22;6988;52.614;13.500;2022-12-18T05:10:58;-5.70;99.90
13835;DHT22;6988;52.614;13.500;2022-12-18T05:15:51;-5.70;99.90
13835;DHT22;6988;52.614;13.500;2022-12-18T05:20:45;-5.80;99.90
13835;DHT22;6988;52.614;13.500;2022-12-18T05:25:37;-5.70;99.90
13835;DHT22;6988;52.614;13.500;2022-12-18T05:30:29;-5.60;99.90
13835;DHT22;6988;52.614;13.500;2022-12-18T05:35:21;-5.70;99.90
13835;DHT22;6988;52.614;13.500;2022-12-18T05:40:14;-5.70;99.90
13835;DHT22;6988;52.614;13.500;2022-12-18T05:45:07;-5.70;99.90
13835;DHT22;6988;52.614;13.500;2022-12-18T05:50:00;-5.70;99.90
13835;DHT22;6988;52.614;13.500;2022-12-18T05:54:52;-5.60;99.90
13835;DHT22;6988;52.614;13.500;2022-12-18T05:59:45;-5.70;99.90
13835;DHT22;6988;52.614;13.500;2022-12-18T06:04:37;-5.80;99.90
13835;DHT22;6988;52.614;13.500;2022-12-18T06:09:29;-5.90;99.90
13835;DHT22;6988;52.614;13.500;2022-12-18T06:14:21;-5.80;99.90
13835;DHT22;6988;52.614;13.500;2022-12-18T06:19:16;-5.90;99.90
13835;DHT22;6988;52.614;13.500;2022-12-18T06:24:08;-5.90;99.90
13835;DHT22;6988;52.614;13.500;2022-12-18T06:29:00;-5.90;99.90
13835;DHT22;6988;52.614;13.500;2022-12-18T06:33:52;-5.90;99.90
13835;DHT22;6988;52.614;13.500;2022-12-18T06:38:45;-5.90;99.90
13835;DHT22;6988;52.614;13.500;2022-12-18T06:43:37;-6.00;99.90
13835;DHT22;6988;52.614;13.500;2022-12-18T06:48:29;-6.00;99.90
13835;DHT22;6988;52.614;13.500;2022-12-18T06:53:21;-5.90;99.90
13835;DHT22;6988;52.614;13.500;2022-12-18T06:58:15;-5.80;99.90
13835;DHT22;6988;52.614;13.500;2022-12-18T07:03:06;-6.00;99.90
13835;DHT22;6988;52.614;13.500;2022-12-18T07:07:58;-5.90;99.90
13835;DHT22;6988;52.614;13.500;2022-12-18T07:12:50;-5.90;99.90
13835;DHT22;6988;52.614;13.500;2022-12-18T07:17:44;-6.00;99.90
13835;DHT22;6988;52.614;13.500;2022-12-18T07:22:36;-6.10;99.90
13835;DHT22;6988;52.614;13.500;2022-12-18T07:27:28;-6.00;99.90
13835;DHT22;6988;52.614;13.500;2022-12-18T07:32:20;-5.80;99.90
13835;DHT22;6988;52.614;13.500;2022-12-18T07:37:13;-5.70;99.90
13835;DHT22;6988;52.614;13.500;2022-12-18T07:42:05;-6.10;99.90
13835;DHT22;6988;52.614;13.500;2022-12-18T07:47:29;-5.80;99.90
13835;DHT22;6988;52.614;13.500;2022-12-18T07:52:25;-5.70;99.90
13835;DHT22;6988;52.614;13.500;2022-12-18T07:57:17;-5.90;99.90
13835;DHT22;6988;52.614;13.500;2022-12-18T08:02:09;-5.90;99.90
13835;DHT22;6988;52.614;13.500;2022-12-18T08:07:00;-5.80;99.90
13835;DHT22;6988;52.614;13.500;2022-12-18T08:11:54;-5.80;99.90
13835;DHT22;6988;52.614;13.500;2022-12-18T08:16:46;-5.70;99.90
13835;DHT22;6988;52.614;13.500;2022-12-18T08:21:40;-5.70;99.90
13835;DHT22;6988;52.614;13.500;2022-12-18T08:26:32;-5.60;99.90
13835;DHT22;6988;52.614;13.500;2022-12-18T08:31:27;-5.80;99.90
13835;DHT22;6988;52.614;13.500;2022-12-18T08:36:21;-5.70;99.90
13835;DHT22;6988;52.614;13.500;2022-12-18T08:41:15;-5.60;99.90
13835;DHT22;6988;52.614;13.500;2022-12-18T08:46:08;-5.70;99.90
13835;DHT22;6988;52.614;13.500;2022-12-18T08:51:01;-5.50;99.90
13835;DHT22;6988;52.614;13.500;2022-12-18T08:55:53;-5.60;99.90
13835;DHT22;6988;52.614;13.500;2022-12-18T09:00:47;-5.50;99.90
13835;DHT22;6988;52.614;13.500;2022-12-18T09:05:39;-5.50;99.90
13835;DHT22;6988;52.614;13.500;2022-12-18T09:10:33;-5.30;99.90
13835;DHT22;6988;52.614;13.500;2022-12-18T09:15:25;-5.30;99.90
13835;DHT22;6988;52.614;13.500;2022-12-18T09:20:18;-5.30;99.90
13835;DHT22;6988;52.614;13.500;2022-12-18T09:25:09;-5.20;99.90
13835;DHT22;6988;52.614;13.500;2022-12-18T09:30:04;-5.20;99.90
13835;DHT22;6988;52.614;13.500;2022-12-18T09:34:56;-5.20;99.90
13835;DHT22;6988;52.614;13.500;2022-12-18T09:39:49;-5.20;99.90
13835;DHT22;6988;52.614;13.500;2022-12-18T09:44:43;-5.00;99.90
13835;DHT22;6988;52.614;13.500;2022-12-18T09:49:43;-5.00;99.90
13835;DHT22;6988;52.614;13.500;2022-12-18T09:54:39;-5.00;99.90
13835;DHT22;6988;52.614;13.500;2022-12-18T09:59:37;-5.10;99.90
13835;DHT22;6988;52.614;13.500;2022-12-18T10:04:31;-5.00;99.90
13835;DHT22;6988;52.614;13.500;2022-12-18T10:09:31;-4.90;99.90
13835;DHT22;6988;52.614;13.500;2022-12-18T10:14:33;-4.90;99.90
13835;DHT22;6988;52.614;13.500;2022-12-18T10:19:41;-4.70;99.90
13835;DHT22;6988;52.614;13.500;2022-12-18T10:24:45;-4.70;99.90
13835;DHT22;6988;52.614;13.500;2022-12-18T10:29:46;-4.60;99.90
13835;DHT22;6988;52.614;13.500;2022-12-18T10:34:38;-4.60;99.90
13835;DHT22;6988;52.614;13.500;2022-12-18T10:39:30;-4.50;99.90
13835;DHT22;6988;52.614;13.500;2022-12-18T10:44:24;-4.30;99.90
13835;DHT22;6988;52.614;13.500;2022-12-18T10:49:21;-4.20;99.90
13835;DHT22;6988;52.614;13.500;2022-12-18T10:54:16;-4.00;99.90
13835;DHT22;6988;52.614;13.500;2022-12-18T10:59:12;-4.00;99.90
13835;DHT22;6988;52.614;13.500;2022-12-18T11:04:09;-3.90;99.90
13835;DHT22;6988;52.614;13.500;2022-12-18T11:09:03;-3.80;99.90
13835;DHT22;6988;52.614;13.500;2022-12-18T11:14:01;-3.80;99.90
13835;DHT22;6988;52.614;13.500;2022-12-18T11:18:54;-3.70;99.90
13835;DHT22;6988;52.614;13.500;2022-12-18T11:24:18;-3.70;99.90
13835;DHT22;6988;52.614;13.500;2022-12-18T11:29:17;-3.80;99.90
13835;DHT22;6988;52.614;13.500;2022-12-18T11:34:19;-3.70;99.90
13835;DHT22;6988;52.614;13.500;2022-12-18T11:39:23;-3.70;99.90
13835;DHT22;6988;52.614;13.500;2022-12-18T11:44:25;-3.60;99.90
13835;DHT22;6988;52.614;13.500;2022-12-18T11:49:24;-3.60;99.90
13835;DHT22;6988;52.614;13.500;2022-12-18T11:54:20;-3.60;99.90
13835;DHT22;6988;52.614;13.500;2022-12-18T11:59:23;-3.70;99.90
13835;DHT22;6988;52.614;13.500;2022-12-18T12:04:40;-3.80;99.90
13835;DHT22;6988;52.614;13.500;2022-12-18T12:09:48;-4.00;99.90
13835;DHT22;6988;52.614;13.500;2022-12-18T12:14:55;-4.00;99.90
13835;DHT22;6988;52.614;13.500;2022-12-18T12:19:58;-4.10;99.90
13835;DHT22;6988;52.614;13.500;2022-12-18T12:25:11;-3.90;99.90
13835;DHT22;6988;52.614;13.500;2022-12-18T12:30:16;-3.90;99.90
13835;DHT22;6988;52.614;13.500;2022-12-18T12:35:22;-3.90;99.90
13835;DHT22;6988;52.614;13.500;2022-12-18T12:40:26;-3.90;99.90
13835;DHT22;6988;52.614;13.500;2022-12-18T12:45:26;-4.00;99.90
13835;DHT22;6988;52.614;13.500;2022-12-18T12:50:26;-3.80;99.90
13835;DHT22;6988;52.614;13.500;2022-12-18T12:55:24;-3.80;99.90
13835;DHT22;6988;52.614;13.500;2022-12-18T13:00:19;-3.70;99.90
13835;DHT22;6988;52.614;13.500;2022-12-18T13:05:20;-3.60;99.90
13835;DHT22;6988;52.614;13.500;2022-12-18T13:10:38;-3.60;99.90
13835;DHT22;6988;52.614;13.500;2022-12-18T13:15:34;-3.70;99.90
13835;DHT22;6988;52.614;13.500;2022-12-18T13:20:33;-3.70;99.90
13835;DHT22;6988;52.614;13.500;2022-12-18T13:25:33;-3.60;99.90
13835;DHT22;6988;52.614;13.500;2022-12-18T13:30:43;-3.70;99.90
13835;DHT22;6988;52.614;13.500;2022-12-18T13:35:38;-3.90;99.90
13835;DHT22;6988;52.614;13.500;2022-12-18T13:40:57;-3.90;99.90
13835;DHT22;6988;52.614;13.500;2022-12-18T13:46:03;-3.90;99.90
13835;DHT22;6988;52.614;13.500;2022-12-18T13:51:00;-3.70;99.90
13835;DHT22;6988;52.614;13.500;2022-12-18T13:55:54;-3.60;99.90
13835;DHT22;6988;52.614;13.500;2022-12-18T14:00:48;-3.60;99.90
13835;DHT22;6988;52.614;13.500;2022-12-18T14:05:40;-3.60;99.90
13835;DHT22;6988;52.614;13.500;2022-12-18T14:10:40;-3.60;99.90
13835;DHT22;6988;52.614;13.500;2022-12-18T14:15:34;-3.60;99.90
13835;DHT22;6988;52.614;13.500;2022-12-18T14:20:32;-3.60;99.90
13835;DHT22;6988;52.614;13.500;2022-12-18T14:25:27;-3.70;99.90
13835;DHT22;6988;52.614;13.500;2022-12-18T14:30:25;-3.70;99.90
13835;DHT22;6988;52.614;13.500;2022-12-18T14:35:20;-3.80;99.90
13835;DHT22;6988;52.614;13.500;2022-12-18T14:40:14;-3.70;99.90
13835;DHT22;6988;52.614;13.500;2022-12-18T14:45:33;-3.60;99.90
13835;DHT22;6988;52.614;13.500;2022-12-18T14:50:31;-3.70;99.90
13835;DHT22;6988;52.614;13.500;2022-12-18T14:55:25;-3.70;99.90
13835;DHT22;6988;52.614;13.500;2022-12-18T15:00:20;-3.70;99.90
13835;DHT22;6988;52.614;13.500;2022-12-18T15:05:19;-3.60;99.90
13835;DHT22;6988;52.614;13.500;2022-12-18T15:10:17;-3.60;99.90
13835;DHT22;6988;52.614;13.500;2022-12-18T15:15:46;-3.60;99.90
13835;DHT22;6988;52.614;13.500;2022-12-18T15:20:42;-3.90;99.90
13835;DHT22;6988;52.614;13.500;2022-12-18T15:25:36;-3.90;99.90
13835;DHT22;6988;52.614;13.500;2022-12-18T15:30:29;-3.90;99.90
13835;DHT22;6988;52.614;13.500;2022-12-18T15:35:24;-3.70;99.90
13835;DHT22;6988;52.614;13.500;2022-12-18T15:40:18;-3.80;99.90
13835;DHT22;6988;52.614;13.500;2022-12-18T15:45:11;-3.80;99.90
13835;DHT22;6988;52.614;13.500;2022-12-18T15:50:04;-3.80;99.90
13835;DHT22;6988;52.614;13.500;2022-12-18T15:54:58;-3.80;99.90
13835;DHT22;6988;52.614;13.500;2022-12-18T16:00:11;-3.90;99.90
13835;DHT22;6988;52.614;13.500;2022-12-18T16:05:14;-4.00;99.90
13835;DHT22;6988;52.614;13.500;2022-12-18T16:10:09;-4.10;99.90
13835;DHT22;6988;52.614;13.500;2022-12-18T16:15:02;-3.90;99.90
13835;DHT22;6988;52.614;13.500;2022-12-18T16:19:55;-3.80;99.90
13835;DHT22;6988;52.614;13.500;2022-12-18T16:24:48;-3.90;99.90
13835;DHT22;6988;52.614;13.500;2022-12-18T16:29:41;-3.90;99.90
13835;DHT22;6988;52.614;13.500;2022-12-18T16:34:34;-3.90;99.90
13835;DHT22;6988;52.614;13.500;2022-12-18T16:39:26;-3.90;99.90
13835;DHT22;6988;52.614;13.500;2022-12-18T16:44:19;-3.90;99.90
13835;DHT22;6988;52.614;13.500;2022-12-18T16:49:13;-3.70;99.90
13835;DHT22;6988;52.614;13.500;2022-12-18T16:54:06;-3.70;99.90
13835;DHT22;6988;52.614;13.500;2022-12-18T16:58:59;-3.70;99.90
13835;DHT22;6988;52.614;13.500;2022-12-18T17:03:55;-3.70;99.90
13835;DHT22;6988;52.614;13.500;2022-12-18T17:08:54;-3.60;99.90
13835;DHT22;6988;52.614;13.500;2022-12-18T17:13:46;-3.70;99.90
13835;DHT22;6988;52.614;13.500;2022-12-18T17:18:38;-3.70;99.90
13835;DHT22;6988;52.614;13.500;2022-12-18T17:23:29;-3.70;99.90
13835;DHT22;6988;52.614;13.500;2022-12-18T17:28:23;-3.80;99.90
13835;DHT22;6988;52.614;13.500;2022-12-18T17:33:18;-3.80;99.90
13835;DHT22;6988;52.614;13.500;2022-12-18T17:38:10;-3.80;99.90
13835;DHT22;6988;52.614;13.500;2022-12-18T17:43:02;-3.90;99.90
13835;DHT22;6988;52.614;13.500;2022-12-18T17:47:56;-4.00;99.90
13835;DHT22;6988;52.614;13.500;2022-12-18T17:52:47;-4.00;99.90
13835;DHT22;6988;52.614;13.500;2022-12-18T17:57:40;-4.10;99.90
13835;DHT22;6988;52.614;13.500;2022-12-18T18:02:34;-4.20;99.90
13835;DHT22;6988;52.614;13.500;2022-12-18T18:07:28;-4.10;99.90
13835;DHT22;6988;52.614;13.500;2022-12-18T18:12:19;-4.10;99.90
13835;DHT22;6988;52.614;13.500;2022-12-18T18:17:29;-4.30;99.90
13835;DHT22;6988;52.614;13.500;2022-12-18T18:22:21;-4.30;99.90
13835;DHT22;6988;52.614;13.500;2022-12-18T18:27:14;-4.30;99.90
13835;DHT22;6988;52.614;13.500;2022-12-18T18:32:07;-4.40;99.90
13835;DHT22;6988;52.614;13.500;2022-12-18T18:36:59;-4.40;99.90
13835;DHT22;6988;52.614;13.500;2022-12-18T18:41:52;-4.50;99.90
13835;DHT22;6988;52.614;13.500;2022-12-18T18:46:46;-4.50;99.90
13835;DHT22;6988;52.614;13.500;2022-12-18T18:51:38;-4.60;99.90
13835;DHT22;6988;52.614;13.500;2022-12-18T18:56:30;-4.60;99.90
13835;DHT22;6988;52.614;13.500;2022-12-18T19:01:24;-4.70;99.90
13835;DHT22;6988;52.614;13.500;2022-12-18T19:06:20;-4.70;99.90
13835;DHT22;6988;52.614;13.500;2022-12-18T19:11:14;-4.70;99.90
13835;DHT22;6988;52.614;13.500;2022-12-18T19:16:25;-4.70;99.90
13835;DHT22;6988;52.614;13.500;2022-12-18T19:21:22;-4.60;99.90
13835;DHT22;6988;52.614;13.500;2022-12-18T19:26:16;-4.80;99.90
13835;DHT22;6988;52.614;13.500;2022-12-18T19:31:10;-4.70;99.90
13835;DHT22;6988;52.614;13.500;2022-12-18T19:36:10;-4.80;99.90
13835;DHT22;6988;52.614;13.500;2022-12-18T19:41:06;-4.80;99.90
13835;DHT22;6988;52.614;13.500;2022-12-18T19:45:59;-4.80;99.90
13835;DHT22;6988;52.614;13.500;2022-12-18T19:50:51;-4.80;99.90
13835;DHT22;6988;52.614;13.500;2022-12-18T19:55:44;-4.80;99.90
13835;DHT22;6988;52.614;13.500;2022-12-18T20:00:37;-4.70;99.90
13835;DHT22;6988;52.614;13.500;2022-12-18T20:05:29;-4.70;99.90
13835;DHT22;6988;52.614;13.500;2022-12-18T20:10:22;-4.70;99.90
13835;DHT22;6988;52.614;13.500;2022-12-18T20:15:14;-4.70;99.90
13835;DHT22;6988;52.614;13.500;2022-12-18T20:20:09;-4.60;99.90
13835;DHT22;6988;52.614;13.500;2022-12-18T20:25:01;-4.70;99.90
13835;DHT22;6988;52.614;13.500;2022-12-18T20:29:53;-4.70;99.90
13835;DHT22;6988;52.614;13.500;2022-12-18T20:34:45;-4.70;99.90
13835;DHT22;6988;52.614;13.500;2022-12-18T20:39:38;-4.70;99.90
13835;DHT22;6988;52.614;13.500;2022-12-18T20:44:31;-4.70;99.90
13835;DHT22;6988;52.614;13.500;2022-12-18T20:49:24;-4.70;99.90
13835;DHT22;6988;52.614;13.500;2022-12-18T20:54:17;-4.70;99.90
13835;DHT22;6988;52.614;13.500;2022-12-18T20:59:10;-4.70;99.90
13835;DHT22;6988;52.614;13.500;2022-12-18T21:04:02;-4.80;99.90
13835;DHT22;6988;52.614;13.500;2022-12-18T21:08:54;-4.70;99.90
13835;DHT22;6988;52.614;13.500;2022-12-18T21:13:46;-4.70;99.90
13835;DHT22;6988;52.614;13.500;2022-12-18T21:18:40;-4.80;99.90
13835;DHT22;6988;52.614;13.500;2022-12-18T21:23:32;-4.70;99.90
13835;DHT22;6988;52.614;13.500;2022-12-18T21:28:25;-4.80;99.90
13835;DHT22;6988;52.614;13.500;2022-12-18T21:33:17;-4.70;99.90
13835;DHT22;6988;52.614;13.500;2022-12-18T21:38:10;-4.80;99.90
13835;DHT22;6988;52.614;13.500;2022-12-18T21:43:03;-4.70;99.90
13835;DHT22;6988;52.614;13.500;2022-12-18T21:48:13;-4.70;99.90
13835;DHT22;6988;52.614;13.500;2022-12-18T21:53:05;-4.70;99.90
13835;DHT22;6988;52.614;13.500;2022-12-18T21:57:58;-4.60;99.90
13835;DHT22;6988;52.614;13.500;2022-12-18T22:02:50;-4.60;99.90
13835;DHT22;6988;52.614;13.500;2022-12-18T22:07:43;-4.60;99.90
13835;DHT22;6988;52.614;13.500;2022-12-18T22:12:35;-4.60;99.90
13835;DHT22;6988;52.614;13.500;2022-12-18T22:17:28;-4.70;99.90
13835;DHT22;6988;52.614;13.500;2022-12-18T22:22:21;-4.60;99.90
13835;DHT22;6988;52.614;13.500;2022-12-18T22:27:13;-4.60;99.90
13835;DHT22;6988;52.614;13.500;2022-12-18T22:32:06;-4.50;99.90
13835;DHT22;6988;52.614;13.500;2022-12-18T22:37:01;-4.50;99.90
13835;DHT22;6988;52.614;13.500;2022-12-18T22:41:53;-4.60;99.90
13835;DHT22;6988;52.614;13.500;2022-12-18T23:04:41;-4.80;99.90
13835;DHT22;6988;52.614;13.500;2022-12-18T23:09:34;-4.80;99.90
13835;DHT22;6988;52.614;13.500;2022-12-18T23:14:26;-4.60;99.90
13835;DHT22;6988;52.614;13.500;2022-12-18T23:19:19;-4.70;99.90
13835;DHT22;6988;52.614;13.500;2022-12-18T23:24:13;-4.60;99.90
13835;DHT22;6988;52.614;13.500;2022-12-18T23:29:05;-4.70;99.90
13835;DHT22;6988;52.614;13.500;2022-12-18T23:33:59;-4.50;99.90
13835;DHT22;6988;52.614;13.500;2022-12-18T23:38:53;-4.70;99.90
13835;DHT22;6988;52.614;13.500;2022-12-18T23:43:48;-4.60;99.90
13835;DHT22;6988;52.614;13.500;2022-12-18T23:48:40;-4.70;99.90
13835;DHT22;6988;52.614;13.500;2022-12-18T23:53:32;-4.70;99.90
13835;DHT22;6988;52.614;13.500;2022-12-18T23:58:23;-4.70;99.90
